Lapark, Pennsylvania
Current Conditions -  °F | °C
As of 10:15 AM on Thursday 18 Dec 2014 (Local Time) from KMQS Reporting Station
Overcast Overcast  
Wind Chill: 24°   Ceiling: 3000
Heat Index: 34°   Visibility: 10mi
Dew Point: 25°   Wind: 15mph
Humidity: 70%   Direction: 300°WNW
Pressure: 30.09"   Gusts: 18mph
Location:  39.9757°N, 76.0913°W
Report Text: KMQS 181515Z AUTO 30013G16KT 10SM OVC030 01/M04 A3009 RMK AO2
Loading
Personal Weather Stations






























Interactive Weather Map New forecast layout! Learn more

10-Day Weather Forecast

Advertisements
Track Severe Weather on mobile